sensor_id;sensor_type;location;lat;lon;timestamp;P1;durP1;ratioP1;P2;durP2;ratioP2
42770;SDS011;28426;42.872;25.314;2023-05-10T00:00:59;15.50;;;10.70;;
42770;SDS011;28426;42.872;25.314;2023-05-10T00:03:30;15.85;;;12.00;;
42770;SDS011;28426;42.872;25.314;2023-05-10T00:06:01;14.25;;;10.30;;
42770;SDS011;28426;42.872;25.314;2023-05-10T00:11:08;13.77;;;9.80;;
42770;SDS011;28426;42.872;25.314;2023-05-10T00:13:38;12.57;;;9.20;;
42770;SDS011;28426;42.872;25.314;2023-05-10T00:16:09;16.55;;;11.15;;
42770;SDS011;28426;42.872;25.314;2023-05-10T00:18:41;13.77;;;10.70;;
42770;SDS011;28426;42.872;25.314;2023-05-10T00:21:11;13.63;;;10.23;;
42770;SDS011;28426;42.872;25.314;2023-05-10T00:23:45;15.65;;;10.95;;
42770;SDS011;28426;42.872;25.314;2023-05-10T00:26:16;12.15;;;8.93;;
42770;SDS011;28426;42.872;25.314;2023-05-10T00:31:21;9.63;;;7.07;;
42770;SDS011;28426;42.872;25.314;2023-05-10T00:33:53;12.02;;;8.30;;
42770;SDS011;28426;42.872;25.314;2023-05-10T00:36:23;15.27;;;8.57;;
42770;SDS011;28426;42.872;25.314;2023-05-10T00:38:57;10.32;;;7.30;;
42770;SDS011;28426;42.872;25.314;2023-05-10T00:41:28;12.38;;;6.97;;
42770;SDS011;28426;42.872;25.314;2023-05-10T00:44:01;10.68;;;7.28;;
42770;SDS011;28426;42.872;25.314;2023-05-10T00:46:31;10.90;;;7.20;;
42770;SDS011;28426;42.872;25.314;2023-05-10T00:49:03;10.68;;;6.65;;
42770;SDS011;28426;42.872;25.314;2023-05-10T00:51:34;11.38;;;8.02;;
42770;SDS011;28426;42.872;25.314;2023-05-10T00:54:07;11.57;;;7.55;;
42770;SDS011;28426;42.872;25.314;2023-05-10T00:56:39;9.20;;;7.32;;
42770;SDS011;28426;42.872;25.314;2023-05-10T00:59:10;8.60;;;6.72;;
42770;SDS011;28426;42.872;25.314;2023-05-10T01:01:41;9.38;;;7.43;;
42770;SDS011;28426;42.872;25.314;2023-05-10T01:04:13;8.43;;;6.63;;
42770;SDS011;28426;42.872;25.314;2023-05-10T01:06:44;8.65;;;6.63;;
42770;SDS011;28426;42.872;25.314;2023-05-10T01:09:19;12.77;;;7.70;;
42770;SDS011;28426;42.872;25.314;2023-05-10T01:11:50;13.90;;;8.02;;
42770;SDS011;28426;42.872;25.314;2023-05-10T01:14:22;11.38;;;8.02;;
42770;SDS011;28426;42.872;25.314;2023-05-10T01:16:53;12.43;;;8.23;;
42770;SDS011;28426;42.872;25.314;2023-05-10T01:19:25;13.63;;;7.97;;
42770;SDS011;28426;42.872;25.314;2023-05-10T01:22:00;8.93;;;7.05;;
42770;SDS011;28426;42.872;25.314;2023-05-10T01:24:45;11.20;;;8.18;;
42770;SDS011;28426;42.872;25.314;2023-05-10T01:30:51;10.55;;;7.40;;
42770;SDS011;28426;42.872;25.314;2023-05-10T01:33:41;13.52;;;9.57;;
42770;SDS011;28426;42.872;25.314;2023-05-10T01:36:19;11.60;;;8.85;;
42770;SDS011;28426;42.872;25.314;2023-05-10T01:38:57;10.48;;;6.68;;
42770;SDS011;28426;42.872;25.314;2023-05-10T01:44:08;8.50;;;6.00;;
42770;SDS011;28426;42.872;25.314;2023-05-10T01:46:47;11.07;;;6.15;;
42770;SDS011;28426;42.872;25.314;2023-05-10T01:49:27;8.98;;;6.63;;
42770;SDS011;28426;42.872;25.314;2023-05-10T01:52:04;10.57;;;6.72;;
42770;SDS011;28426;42.872;25.314;2023-05-10T01:54:38;8.60;;;6.10;;
42770;SDS011;28426;42.872;25.314;2023-05-10T01:57:14;10.45;;;7.20;;
42770;SDS011;28426;42.872;25.314;2023-05-10T01:59:49;7.60;;;5.07;;
42770;SDS011;28426;42.872;25.314;2023-05-10T02:02:22;14.52;;;5.30;;
42770;SDS011;28426;42.872;25.314;2023-05-10T02:04:57;8.85;;;5.53;;
42770;SDS011;28426;42.872;25.314;2023-05-10T02:07:29;10.23;;;4.53;;
42770;SDS011;28426;42.872;25.314;2023-05-10T02:10:03;8.70;;;5.00;;
42770;SDS011;28426;42.872;25.314;2023-05-10T02:12:37;9.15;;;5.80;;
42770;SDS011;28426;42.872;25.314;2023-05-10T02:15:12;8.30;;;5.07;;
42770;SDS011;28426;42.872;25.314;2023-05-10T02:17:46;6.30;;;5.13;;
42770;SDS011;28426;42.872;25.314;2023-05-10T02:20:21;9.82;;;4.63;;
42770;SDS011;28426;42.872;25.314;2023-05-10T02:22:53;8.15;;;4.47;;
42770;SDS011;28426;42.872;25.314;2023-05-10T02:25:25;8.60;;;4.40;;
42770;SDS011;28426;42.872;25.314;2023-05-10T02:27:59;5.43;;;4.32;;
42770;SDS011;28426;42.872;25.314;2023-05-10T02:30:31;8.02;;;4.40;;
42770;SDS011;28426;42.872;25.314;2023-05-10T02:33:03;8.88;;;4.88;;
42770;SDS011;28426;42.872;25.314;2023-05-10T02:35:37;9.65;;;4.72;;
42770;SDS011;28426;42.872;25.314;2023-05-10T02:38:08;8.50;;;4.15;;
42770;SDS011;28426;42.872;25.314;2023-05-10T02:40:41;12.05;;;4.55;;
42770;SDS011;28426;42.872;25.314;2023-05-10T02:43:14;7.07;;;4.60;;
42770;SDS011;28426;42.872;25.314;2023-05-10T02:45:47;6.25;;;4.32;;
42770;SDS011;28426;42.872;25.314;2023-05-10T02:48:18;6.35;;;3.88;;
42770;SDS011;28426;42.872;25.314;2023-05-10T02:50:52;5.57;;;3.78;;
42770;SDS011;28426;42.872;25.314;2023-05-10T02:53:28;8.60;;;3.90;;
42770;SDS011;28426;42.872;25.314;2023-05-10T02:56:04;10.57;;;3.95;;
42770;SDS011;28426;42.872;25.314;2023-05-10T02:58:39;7.32;;;4.13;;
42770;SDS011;28426;42.872;25.314;2023-05-10T03:01:10;6.05;;;3.85;;
42770;SDS011;28426;42.872;25.314;2023-05-10T03:03:41;7.95;;;3.95;;
42770;SDS011;28426;42.872;25.314;2023-05-10T03:06:14;6.28;;;4.13;;
42770;SDS011;28426;42.872;25.314;2023-05-10T03:08:45;7.28;;;4.32;;
42770;SDS011;28426;42.872;25.314;2023-05-10T03:11:21;7.65;;;4.68;;
42770;SDS011;28426;42.872;25.314;2023-05-10T03:14:06;7.15;;;4.63;;
42770;SDS011;28426;42.872;25.314;2023-05-10T03:16:44;10.43;;;5.15;;
42770;SDS011;28426;42.872;25.314;2023-05-10T03:19:19;9.13;;;4.33;;
42770;SDS011;28426;42.872;25.314;2023-05-10T03:21:59;7.57;;;4.60;;
42770;SDS011;28426;42.872;25.314;2023-05-10T03:24:35;7.53;;;4.00;;
42770;SDS011;28426;42.872;25.314;2023-05-10T03:27:09;7.07;;;4.20;;
42770;SDS011;28426;42.872;25.314;2023-05-10T03:29:42;17.48;;;5.95;;
42770;SDS011;28426;42.872;25.314;2023-05-10T03:32:14;7.47;;;4.22;;
42770;SDS011;28426;42.872;25.314;2023-05-10T03:34:45;9.65;;;4.93;;
42770;SDS011;28426;42.872;25.314;2023-05-10T03:37:19;7.15;;;4.57;;
42770;SDS011;28426;42.872;25.314;2023-05-10T03:39:49;11.00;;;5.15;;
42770;SDS011;28426;42.872;25.314;2023-05-10T03:42:20;6.95;;;4.00;;
42770;SDS011;28426;42.872;25.314;2023-05-10T03:44:51;10.07;;;4.95;;
42770;SDS011;28426;42.872;25.314;2023-05-10T03:47:22;6.68;;;3.90;;
42770;SDS011;28426;42.872;25.314;2023-05-10T03:49:53;6.60;;;4.63;;
42770;SDS011;28426;42.872;25.314;2023-05-10T03:52:26;10.40;;;5.07;;
42770;SDS011;28426;42.872;25.314;2023-05-10T03:54:57;10.23;;;4.45;;
42770;SDS011;28426;42.872;25.314;2023-05-10T03:57:30;6.97;;;4.22;;
42770;SDS011;28426;42.872;25.314;2023-05-10T04:00:01;11.07;;;3.80;;
42770;SDS011;28426;42.872;25.314;2023-05-10T04:02:41;7.75;;;4.38;;
42770;SDS011;28426;42.872;25.314;2023-05-10T04:05:17;7.82;;;4.18;;
42770;SDS011;28426;42.872;25.314;2023-05-10T04:07:53;7.30;;;3.60;;
42770;SDS011;28426;42.872;25.314;2023-05-10T04:10:24;6.13;;;3.83;;
42770;SDS011;28426;42.872;25.314;2023-05-10T04:12:55;6.38;;;3.65;;
42770;SDS011;28426;42.872;25.314;2023-05-10T04:15:26;7.57;;;3.78;;
42770;SDS011;28426;42.872;25.314;2023-05-10T04:17:56;10.60;;;3.85;;
42770;SDS011;28426;42.872;25.314;2023-05-10T04:20:27;11.15;;;4.30;;
42770;SDS011;28426;42.872;25.314;2023-05-10T04:23:01;8.73;;;4.15;;
42770;SDS011;28426;42.872;25.314;2023-05-10T04:25:33;21.42;;;5.30;;
42770;SDS011;28426;42.872;25.314;2023-05-10T04:28:05;14.82;;;4.45;;
42770;SDS011;28426;42.872;25.314;2023-05-10T04:30:36;13.05;;;4.70;;
42770;SDS011;28426;42.872;25.314;2023-05-10T04:33:08;13.68;;;4.45;;
42770;SDS011;28426;42.872;25.314;2023-05-10T04:35:39;14.10;;;4.93;;
42770;SDS011;28426;42.872;25.314;2023-05-10T04:38:12;8.43;;;4.43;;
42770;SDS011;28426;42.872;25.314;2023-05-10T04:40:43;8.60;;;4.13;;
42770;SDS011;28426;42.872;25.314;2023-05-10T04:43:14;35.67;;;7.60;;
42770;SDS011;28426;42.872;25.314;2023-05-10T04:45:44;10.55;;;4.55;;
42770;SDS011;28426;42.872;25.314;2023-05-10T04:48:15;13.73;;;5.18;;
42770;SDS011;28426;42.872;25.314;2023-05-10T04:50:46;19.92;;;4.55;;
42770;SDS011;28426;42.872;25.314;2023-05-10T04:53:20;13.88;;;4.22;;
42770;SDS011;28426;42.872;25.314;2023-05-10T04:55:51;15.90;;;4.95;;
42770;SDS011;28426;42.872;25.314;2023-05-10T04:58:21;12.32;;;4.68;;
42770;SDS011;28426;42.872;25.314;2023-05-10T05:00:53;22.25;;;5.50;;
42770;SDS011;28426;42.872;25.314;2023-05-10T05:03:24;16.83;;;5.10;;
42770;SDS011;28426;42.872;25.314;2023-05-10T05:05:55;9.68;;;4.07;;
42770;SDS011;28426;42.872;25.314;2023-05-10T05:08:29;27.80;;;5.35;;
42770;SDS011;28426;42.872;25.314;2023-05-10T05:11:00;9.93;;;4.53;;
42770;SDS011;28426;42.872;25.314;2023-05-10T05:13:31;10.73;;;4.03;;
42770;SDS011;28426;42.872;25.314;2023-05-10T05:16:02;20.52;;;4.80;;
42770;SDS011;28426;42.872;25.314;2023-05-10T05:18:34;14.85;;;4.50;;
42770;SDS011;28426;42.872;25.314;2023-05-10T05:21:13;18.13;;;5.10;;
42770;SDS011;28426;42.872;25.314;2023-05-10T05:23:46;19.50;;;4.95;;
42770;SDS011;28426;42.872;25.314;2023-05-10T05:26:17;14.57;;;4.90;;
42770;SDS011;28426;42.872;25.314;2023-05-10T05:28:48;15.75;;;5.07;;
42770;SDS011;28426;42.872;25.314;2023-05-10T05:31:21;19.63;;;5.18;;
42770;SDS011;28426;42.872;25.314;2023-05-10T05:33:52;14.95;;;4.82;;
42770;SDS011;28426;42.872;25.314;2023-05-10T05:36:23;7.32;;;4.15;;
42770;SDS011;28426;42.872;25.314;2023-05-10T05:38:56;6.13;;;3.65;;
42770;SDS011;28426;42.872;25.314;2023-05-10T05:41:27;6.43;;;3.08;;
42770;SDS011;28426;42.872;25.314;2023-05-10T05:43:58;23.73;;;5.13;;
42770;SDS011;28426;42.872;25.314;2023-05-10T05:46:29;17.40;;;4.10;;
42770;SDS011;28426;42.872;25.314;2023-05-10T05:48:59;12.23;;;3.65;;
42770;SDS011;28426;42.872;25.314;2023-05-10T05:51:30;19.92;;;8.63;;
42770;SDS011;28426;42.872;25.314;2023-05-10T05:54:05;8.63;;;3.90;;
42770;SDS011;28426;42.872;25.314;2023-05-10T05:56:36;11.35;;;4.65;;
42770;SDS011;28426;42.872;25.314;2023-05-10T05:59:06;8.27;;;4.10;;
42770;SDS011;28426;42.872;25.314;2023-05-10T06:01:37;9.95;;;4.30;;
42770;SDS011;28426;42.872;25.314;2023-05-10T06:04:08;13.63;;;5.18;;
42770;SDS011;28426;42.872;25.314;2023-05-10T06:06:39;9.98;;;4.13;;
42770;SDS011;28426;42.872;25.314;2023-05-10T06:09:13;10.32;;;3.80;;
42770;SDS011;28426;42.872;25.314;2023-05-10T06:11:44;7.57;;;3.80;;
42770;SDS011;28426;42.872;25.314;2023-05-10T06:14:15;7.03;;;3.38;;
42770;SDS011;28426;42.872;25.314;2023-05-10T06:16:45;5.75;;;3.90;;
42770;SDS011;28426;42.872;25.314;2023-05-10T06:19:17;14.75;;;4.68;;
42770;SDS011;28426;42.872;25.314;2023-05-10T06:21:48;9.75;;;4.00;;
42770;SDS011;28426;42.872;25.314;2023-05-10T06:24:22;7.28;;;4.35;;
42770;SDS011;28426;42.872;25.314;2023-05-10T06:26:54;9.00;;;3.38;;
42770;SDS011;28426;42.872;25.314;2023-05-10T06:29:27;12.95;;;4.18;;
42770;SDS011;28426;42.872;25.314;2023-05-10T06:31:58;9.65;;;3.88;;
42770;SDS011;28426;42.872;25.314;2023-05-10T06:34:29;7.93;;;3.45;;
42770;SDS011;28426;42.872;25.314;2023-05-10T06:37:00;10.25;;;3.53;;
42770;SDS011;28426;42.872;25.314;2023-05-10T06:39:34;8.35;;;3.75;;
42770;SDS011;28426;42.872;25.314;2023-05-10T06:42:05;7.13;;;3.20;;
42770;SDS011;28426;42.872;25.314;2023-05-10T06:44:35;7.22;;;2.97;;
42770;SDS011;28426;42.872;25.314;2023-05-10T06:47:06;8.60;;;2.90;;
42770;SDS011;28426;42.872;25.314;2023-05-10T06:49:37;7.15;;;2.70;;
42770;SDS011;28426;42.872;25.314;2023-05-10T06:52:08;6.35;;;3.00;;
42770;SDS011;28426;42.872;25.314;2023-05-10T06:54:42;3.92;;;2.33;;
42770;SDS011;28426;42.872;25.314;2023-05-10T06:57:12;6.10;;;3.00;;
42770;SDS011;28426;42.872;25.314;2023-05-10T06:59:58;5.43;;;2.50;;
42770;SDS011;28426;42.872;25.314;2023-05-10T07:02:32;7.65;;;2.70;;
42770;SDS011;28426;42.872;25.314;2023-05-10T07:05:03;5.85;;;2.60;;
42770;SDS011;28426;42.872;25.314;2023-05-10T07:07:35;6.75;;;2.97;;
42770;SDS011;28426;42.872;25.314;2023-05-10T07:10:09;4.57;;;2.80;;
42770;SDS011;28426;42.872;25.314;2023-05-10T07:12:40;4.50;;;2.45;;
42770;SDS011;28426;42.872;25.314;2023-05-10T07:15:11;9.65;;;2.53;;
42770;SDS011;28426;42.872;25.314;2023-05-10T07:17:44;5.13;;;2.33;;
42770;SDS011;28426;42.872;25.314;2023-05-10T07:20:15;4.82;;;2.35;;
42770;SDS011;28426;42.872;25.314;2023-05-10T07:22:46;5.70;;;2.30;;
42770;SDS011;28426;42.872;25.314;2023-05-10T07:25:20;5.03;;;2.38;;
42770;SDS011;28426;42.872;25.314;2023-05-10T07:27:51;7.93;;;2.38;;
42770;SDS011;28426;42.872;25.314;2023-05-10T07:30:22;7.15;;;2.60;;
42770;SDS011;28426;42.872;25.314;2023-05-10T07:32:53;8.38;;;2.72;;
42770;SDS011;28426;42.872;25.314;2023-05-10T07:35:24;6.03;;;2.70;;
42770;SDS011;28426;42.872;25.314;2023-05-10T07:37:55;5.82;;;2.33;;
42770;SDS011;28426;42.872;25.314;2023-05-10T07:40:28;5.68;;;2.80;;
42770;SDS011;28426;42.872;25.314;2023-05-10T07:42:59;4.22;;;2.30;;
42770;SDS011;28426;42.872;25.314;2023-05-10T07:45:31;5.30;;;3.00;;
42770;SDS011;28426;42.872;25.314;2023-05-10T07:48:02;7.03;;;2.60;;
42770;SDS011;28426;42.872;25.314;2023-05-10T07:50:33;4.88;;;2.80;;
42770;SDS011;28426;42.872;25.314;2023-05-10T07:53:04;7.20;;;2.72;;
42770;SDS011;28426;42.872;25.314;2023-05-10T07:55:38;4.18;;;2.67;;
42770;SDS011;28426;42.872;25.314;2023-05-10T07:58:09;7.10;;;2.58;;
42770;SDS011;28426;42.872;25.314;2023-05-10T08:00:39;9.95;;;3.08;;
42770;SDS011;28426;42.872;25.314;2023-05-10T08:03:10;6.93;;;2.90;;
42770;SDS011;28426;42.872;25.314;2023-05-10T08:05:42;6.75;;;2.90;;
42770;SDS011;28426;42.872;25.314;2023-05-10T08:08:12;13.18;;;2.45;;
42770;SDS011;28426;42.872;25.314;2023-05-10T08:10:46;7.75;;;3.03;;
42770;SDS011;28426;42.872;25.314;2023-05-10T08:13:17;5.40;;;2.60;;
42770;SDS011;28426;42.872;25.314;2023-05-10T08:15:47;6.18;;;2.08;;
42770;SDS011;28426;42.872;25.314;2023-05-10T08:18:20;5.53;;;1.95;;
42770;SDS011;28426;42.872;25.314;2023-05-10T08:20:51;4.93;;;2.42;;
42770;SDS011;28426;42.872;25.314;2023-05-10T08:23:22;5.97;;;2.10;;
42770;SDS011;28426;42.872;25.314;2023-05-10T08:25:55;10.35;;;2.50;;
42770;SDS011;28426;42.872;25.314;2023-05-10T08:28:26;5.57;;;2.17;;
42770;SDS011;28426;42.872;25.314;2023-05-10T08:30:57;4.80;;;1.80;;
42770;SDS011;28426;42.872;25.314;2023-05-10T08:33:28;5.57;;;2.70;;
42770;SDS011;28426;42.872;25.314;2023-05-10T08:35:59;3.22;;;1.90;;
42770;SDS011;28426;42.872;25.314;2023-05-10T08:38:30;4.85;;;2.05;;
42770;SDS011;28426;42.872;25.314;2023-05-10T08:41:03;5.28;;;2.10;;
42770;SDS011;28426;42.872;25.314;2023-05-10T08:43:36;6.00;;;1.90;;
42770;SDS011;28426;42.872;25.314;2023-05-10T08:46:08;4.53;;;2.13;;
42770;SDS011;28426;42.872;25.314;2023-05-10T08:48:40;6.75;;;2.20;;
42770;SDS011;28426;42.872;25.314;2023-05-10T08:51:13;5.90;;;2.58;;
42770;SDS011;28426;42.872;25.314;2023-05-10T08:53:45;3.88;;;2.00;;
42770;SDS011;28426;42.872;25.314;2023-05-10T08:56:18;6.28;;;2.60;;
42770;SDS011;28426;42.872;25.314;2023-05-10T08:58:50;9.48;;;2.72;;
42770;SDS011;28426;42.872;25.314;2023-05-10T09:01:22;3.08;;;1.50;;
42770;SDS011;28426;42.872;25.314;2023-05-10T09:03:53;6.25;;;2.55;;
42770;SDS011;28426;42.872;25.314;2023-05-10T09:06:25;7.63;;;2.28;;
42770;SDS011;28426;42.872;25.314;2023-05-10T09:08:56;5.70;;;2.47;;
42770;SDS011;28426;42.872;25.314;2023-05-10T09:11:30;4.65;;;2.30;;
42770;SDS011;28426;42.872;25.314;2023-05-10T09:14:01;3.97;;;2.08;;
42770;SDS011;28426;42.872;25.314;2023-05-10T09:16:32;4.50;;;1.95;;
42770;SDS011;28426;42.872;25.314;2023-05-10T09:19:03;4.70;;;2.00;;
42770;SDS011;28426;42.872;25.314;2023-05-10T09:21:35;3.78;;;1.73;;
42770;SDS011;28426;42.872;25.314;2023-05-10T09:24:07;10.25;;;2.60;;
42770;SDS011;28426;42.872;25.314;2023-05-10T09:26:48;8.60;;;5.50;;
42770;SDS011;28426;42.872;25.314;2023-05-10T09:29:18;5.38;;;2.13;;
42770;SDS011;28426;42.872;25.314;2023-05-10T09:31:50;4.05;;;2.22;;
42770;SDS011;28426;42.872;25.314;2023-05-10T09:34:29;6.93;;;3.10;;
42770;SDS011;28426;42.872;25.314;2023-05-10T09:37:02;6.38;;;2.67;;
42770;SDS011;28426;42.872;25.314;2023-05-10T09:39:34;9.20;;;2.30;;
42770;SDS011;28426;42.872;25.314;2023-05-10T09:42:09;3.97;;;1.90;;
42770;SDS011;28426;42.872;25.314;2023-05-10T09:44:40;3.42;;;1.85;;
42770;SDS011;28426;42.872;25.314;2023-05-10T09:47:16;5.57;;;1.85;;
42770;SDS011;28426;42.872;25.314;2023-05-10T09:49:49;4.05;;;1.80;;
42770;SDS011;28426;42.872;25.314;2023-05-10T09:52:20;4.80;;;1.63;;
42770;SDS011;28426;42.872;25.314;2023-05-10T09:54:52;4.95;;;1.70;;
42770;SDS011;28426;42.872;25.314;2023-05-10T09:57:26;5.13;;;1.85;;
42770;SDS011;28426;42.872;25.314;2023-05-10T10:00:01;4.57;;;1.90;;
42770;SDS011;28426;42.872;25.314;2023-05-10T10:02:39;5.68;;;2.08;;
42770;SDS011;28426;42.872;25.314;2023-05-10T10:05:11;8.48;;;2.10;;
42770;SDS011;28426;42.872;25.314;2023-05-10T10:07:42;4.13;;;2.00;;
42770;SDS011;28426;42.872;25.314;2023-05-10T10:10:13;4.75;;;1.80;;
42770;SDS011;28426;42.872;25.314;2023-05-10T10:12:47;6.75;;;1.77;;
42770;SDS011;28426;42.872;25.314;2023-05-10T10:15:19;6.30;;;1.80;;
42770;SDS011;28426;42.872;25.314;2023-05-10T10:17:51;7.53;;;2.00;;
42770;SDS011;28426;42.872;25.314;2023-05-10T10:20:23;4.13;;;1.70;;
42770;SDS011;28426;42.872;25.314;2023-05-10T10:22:54;5.72;;;1.88;;
42770;SDS011;28426;42.872;25.314;2023-05-10T10:25:25;6.93;;;2.30;;
42770;SDS011;28426;42.872;25.314;2023-05-10T10:28:18;3.30;;;1.60;;
42770;SDS011;28426;42.872;25.314;2023-05-10T10:30:55;5.65;;;2.05;;
42770;SDS011;28426;42.872;25.314;2023-05-10T10:33:39;3.17;;;1.80;;
42770;SDS011;28426;42.872;25.314;2023-05-10T10:36:21;3.63;;;1.88;;
42770;SDS011;28426;42.872;25.314;2023-05-10T10:39:00;2.80;;;1.42;;
42770;SDS011;28426;42.872;25.314;2023-05-10T10:41:31;3.30;;;1.55;;
42770;SDS011;28426;42.872;25.314;2023-05-10T10:46:59;5.13;;;2.17;;
42770;SDS011;28426;42.872;25.314;2023-05-10T10:49:42;5.45;;;2.05;;
42770;SDS011;28426;42.872;25.314;2023-05-10T10:52:25;3.40;;;1.60;;
42770;SDS011;28426;42.872;25.314;2023-05-10T10:55:01;4.72;;;1.55;;
42770;SDS011;28426;42.872;25.314;2023-05-10T10:57:42;2.72;;;1.73;;
42770;SDS011;28426;42.872;25.314;2023-05-10T11:00:26;4.95;;;1.90;;
42770;SDS011;28426;42.872;25.314;2023-05-10T11:02:59;5.57;;;1.67;;
42770;SDS011;28426;42.872;25.314;2023-05-10T11:05:35;4.90;;;1.60;;
42770;SDS011;28426;42.872;25.314;2023-05-10T11:08:12;3.28;;;1.50;;
42770;SDS011;28426;42.872;25.314;2023-05-10T11:10:51;7.03;;;1.83;;
42770;SDS011;28426;42.872;25.314;2023-05-10T11:13:37;4.28;;;1.70;;
42770;SDS011;28426;42.872;25.314;2023-05-10T11:16:18;6.15;;;1.90;;
42770;SDS011;28426;42.872;25.314;2023-05-10T11:18:55;4.50;;;1.65;;
42770;SDS011;28426;42.872;25.314;2023-05-10T11:21:29;3.47;;;1.40;;
42770;SDS011;28426;42.872;25.314;2023-05-10T11:24:01;5.00;;;2.03;;
42770;SDS011;28426;42.872;25.314;2023-05-10T11:26:42;4.10;;;1.50;;
42770;SDS011;28426;42.872;25.314;2023-05-10T11:29:13;3.95;;;1.70;;
42770;SDS011;28426;42.872;25.314;2023-05-10T11:31:47;4.45;;;1.80;;
42770;SDS011;28426;42.872;25.314;2023-05-10T11:37:23;3.50;;;1.75;;
42770;SDS011;28426;42.872;25.314;2023-05-10T11:39:54;5.63;;;1.73;;
42770;SDS011;28426;42.872;25.314;2023-05-10T11:42:25;4.20;;;1.83;;
42770;SDS011;28426;42.872;25.314;2023-05-10T11:44:57;5.57;;;1.90;;
42770;SDS011;28426;42.872;25.314;2023-05-10T11:47:34;5.15;;;1.80;;
42770;SDS011;28426;42.872;25.314;2023-05-10T11:50:09;5.65;;;1.70;;
42770;SDS011;28426;42.872;25.314;2023-05-10T11:52:42;4.68;;;1.95;;
42770;SDS011;28426;42.872;25.314;2023-05-10T11:55:12;4.03;;;1.80;;
42770;SDS011;28426;42.872;25.314;2023-05-10T11:57:44;6.10;;;1.77;;
42770;SDS011;28426;42.872;25.314;2023-05-10T12:00:16;6.68;;;2.00;;
42770;SDS011;28426;42.872;25.314;2023-05-10T12:02:49;7.55;;;3.92;;
42770;SDS011;28426;42.872;25.314;2023-05-10T12:05:21;3.58;;;1.88;;
42770;SDS011;28426;42.872;25.314;2023-05-10T12:07:52;5.38;;;1.55;;
42770;SDS011;28426;42.872;25.314;2023-05-10T12:10:24;4.70;;;1.88;;
42770;SDS011;28426;42.872;25.314;2023-05-10T12:12:57;5.47;;;1.70;;
42770;SDS011;28426;42.872;25.314;2023-05-10T12:15:27;4.82;;;1.98;;
42770;SDS011;28426;42.872;25.314;2023-05-10T12:18:01;4.47;;;1.55;;
42770;SDS011;28426;42.872;25.314;2023-05-10T12:20:32;6.60;;;1.67;;
42770;SDS011;28426;42.872;25.314;2023-05-10T12:23:03;4.28;;;1.77;;
42770;SDS011;28426;42.872;25.314;2023-05-10T12:25:35;4.00;;;1.63;;
42770;SDS011;28426;42.872;25.314;2023-05-10T12:28:07;4.03;;;1.77;;
42770;SDS011;28426;42.872;25.314;2023-05-10T12:30:39;2.65;;;1.40;;
42770;SDS011;28426;42.872;25.314;2023-05-10T12:33:13;5.45;;;1.88;;
42770;SDS011;28426;42.872;25.314;2023-05-10T12:35:45;4.38;;;1.65;;
42770;SDS011;28426;42.872;25.314;2023-05-10T12:38:24;7.68;;;1.92;;
42770;SDS011;28426;42.872;25.314;2023-05-10T12:40:57;5.15;;;2.00;;
42770;SDS011;28426;42.872;25.314;2023-05-10T12:43:29;4.43;;;1.90;;
42770;SDS011;28426;42.872;25.314;2023-05-10T12:46:04;6.22;;;1.88;;
42770;SDS011;28426;42.872;25.314;2023-05-10T12:48:38;3.10;;;1.70;;
42770;SDS011;28426;42.872;25.314;2023-05-10T12:51:10;5.60;;;1.98;;
42770;SDS011;28426;42.872;25.314;2023-05-10T12:53:44;5.63;;;2.08;;
42770;SDS011;28426;42.872;25.314;2023-05-10T12:56:15;7.28;;;2.42;;
42770;SDS011;28426;42.872;25.314;2023-05-10T12:58:46;7.65;;;2.13;;
42770;SDS011;28426;42.872;25.314;2023-05-10T13:01:17;8.95;;;1.92;;
42770;SDS011;28426;42.872;25.314;2023-05-10T13:03:50;3.78;;;1.80;;
42770;SDS011;28426;42.872;25.314;2023-05-10T13:06:21;4.03;;;1.90;;
42770;SDS011;28426;42.872;25.314;2023-05-10T13:08:52;3.30;;;1.65;;
42770;SDS011;28426;42.872;25.314;2023-05-10T13:11:24;8.23;;;1.90;;
42770;SDS011;28426;42.872;25.314;2023-05-10T13:13:55;4.22;;;1.75;;
42770;SDS011;28426;42.872;25.314;2023-05-10T13:16:26;5.00;;;1.77;;
42770;SDS011;28426;42.872;25.314;2023-05-10T13:19:00;5.85;;;1.90;;
42770;SDS011;28426;42.872;25.314;2023-05-10T13:21:31;5.30;;;1.90;;
42770;SDS011;28426;42.872;25.314;2023-05-10T13:24:02;6.80;;;2.17;;
42770;SDS011;28426;42.872;25.314;2023-05-10T13:26:33;3.25;;;1.80;;
42770;SDS011;28426;42.872;25.314;2023-05-10T13:29:04;5.28;;;1.83;;
42770;SDS011;28426;42.872;25.314;2023-05-10T13:31:35;7.22;;;2.30;;
42770;SDS011;28426;42.872;25.314;2023-05-10T13:34:08;5.82;;;2.08;;
42770;SDS011;28426;42.872;25.314;2023-05-10T13:36:39;5.53;;;2.13;;
42770;SDS011;28426;42.872;25.314;2023-05-10T13:39:10;3.55;;;1.92;;
42770;SDS011;28426;42.872;25.314;2023-05-10T13:41:41;4.93;;;1.60;;
42770;SDS011;28426;42.872;25.314;2023-05-10T13:44:12;7.93;;;1.92;;
42770;SDS011;28426;42.872;25.314;2023-05-10T13:46:43;3.80;;;1.88;;
42770;SDS011;28426;42.872;25.314;2023-05-10T13:49:17;3.65;;;1.73;;
42770;SDS011;28426;42.872;25.314;2023-05-10T13:51:48;5.55;;;1.92;;
42770;SDS011;28426;42.872;25.314;2023-05-10T13:54:21;6.15;;;2.67;;
42770;SDS011;28426;42.872;25.314;2023-05-10T13:56:56;7.10;;;1.80;;
42770;SDS011;28426;42.872;25.314;2023-05-10T13:59:28;11.55;;;2.85;;
42770;SDS011;28426;42.872;25.314;2023-05-10T14:01:59;3.58;;;1.75;;
42770;SDS011;28426;42.872;25.314;2023-05-10T14:04:33;4.47;;;1.80;;
42770;SDS011;28426;42.872;25.314;2023-05-10T14:07:05;3.43;;;1.83;;
42770;SDS011;28426;42.872;25.314;2023-05-10T14:09:39;5.53;;;2.10;;
42770;SDS011;28426;42.872;25.314;2023-05-10T14:12:10;5.38;;;1.77;;
42770;SDS011;28426;42.872;25.314;2023-05-10T14:14:41;3.20;;;1.50;;
42770;SDS011;28426;42.872;25.314;2023-05-10T14:17:12;3.00;;;1.90;;
42770;SDS011;28426;42.872;25.314;2023-05-10T14:19:45;3.30;;;1.42;;
42770;SDS011;28426;42.872;25.314;2023-05-10T14:22:16;4.97;;;1.60;;
42770;SDS011;28426;42.872;25.314;2023-05-10T14:24:47;3.42;;;1.55;;
42770;SDS011;28426;42.872;25.314;2023-05-10T14:27:18;11.23;;;2.17;;
42770;SDS011;28426;42.872;25.314;2023-05-10T14:29:49;7.53;;;1.80;;
42770;SDS011;28426;42.872;25.314;2023-05-10T14:32:20;7.60;;;2.20;;
42770;SDS011;28426;42.872;25.314;2023-05-10T14:34:53;3.65;;;1.73;;
42770;SDS011;28426;42.872;25.314;2023-05-10T14:37:24;4.88;;;2.60;;
42770;SDS011;28426;42.872;25.314;2023-05-10T14:39:55;5.57;;;2.10;;
42770;SDS011;28426;42.872;25.314;2023-05-10T14:42:26;6.50;;;2.17;;
42770;SDS011;28426;42.872;25.314;2023-05-10T14:44:56;4.10;;;2.22;;
42770;SDS011;28426;42.872;25.314;2023-05-10T14:47:31;6.67;;;2.10;;
42770;SDS011;28426;42.872;25.314;2023-05-10T14:50:05;5.00;;;2.10;;
42770;SDS011;28426;42.872;25.314;2023-05-10T14:52:42;6.28;;;1.95;;
42770;SDS011;28426;42.872;25.314;2023-05-10T14:55:13;2.88;;;1.40;;
42770;SDS011;28426;42.872;25.314;2023-05-10T14:57:46;5.00;;;2.13;;
42770;SDS011;28426;42.872;25.314;2023-05-10T15:00:18;3.75;;;1.58;;
42770;SDS011;28426;42.872;25.314;2023-05-10T15:02:50;6.50;;;1.70;;
42770;SDS011;28426;42.872;25.314;2023-05-10T15:05:24;3.05;;;1.77;;
42770;SDS011;28426;42.872;25.314;2023-05-10T15:07:55;7.80;;;2.17;;
42770;SDS011;28426;42.872;25.314;2023-05-10T15:10:25;5.55;;;2.00;;
42770;SDS011;28426;42.872;25.314;2023-05-10T15:12:59;4.22;;;2.05;;
42770;SDS011;28426;42.872;25.314;2023-05-10T15:15:30;5.07;;;1.90;;
42770;SDS011;28426;42.872;25.314;2023-05-10T15:18:01;4.72;;;2.58;;
42770;SDS011;28426;42.872;25.314;2023-05-10T15:20:35;4.28;;;2.10;;